Buckskin, IN

12:38 PM CDT on August 27, 2014 (GMT -0500)
1 Block West of Oakland City University | Change Station
CLOSE
Current Station
Personal Weather Station
Location: Oakland City, IN
Elevation: 490 ft
Nearby Weather Stations

Elev 490 ft 38.34 °N, 87.35 °W | Updated 5 seconds ago

Clear
Clear
88.9 °F
Feels Like 102 °F
N
4.0
Wind Variable Wind from NNW
Gusts 7.0 mph

Today
High -- | Low -- °F
--% Chance of Precip.
Yesterday
High -- | Low -- °F
Precip. -- in
6:15 AM 7:26 PM
Waxing Crescent, 4% visible
Pressure 30.08 in
Visibility 8.0 miles
Clouds Few 3600 ft
Heat Index 102 °F
Dew Point 77 °F
Humidity 69%
Rainfall 0.00 in
Snow Depth Not available.
UV 9 out of 12
Pollen 10.40 out of 12
Ozone Good
PM2.5 Moderate
Flu Activity Not available.
METAR KEVV 271654Z 31003KT 8SM FEW036 33/22 A3010 RMK AO2 SLP186 T03280222

More Conditions Fewer Conditions

Pressure 30.08 in
Visibility 8.0 miles
Clouds Few 3600 ft
Heat Index 102 °F
Dew Point 77 °F
Humidity 69%
Rainfall 0.00 in
Snow Depth Not available.
UV 9 out of 12
Pollen 10.40 out of 12
Ozone Good
PM2.5 Moderate
Flu Activity Not available.
METAR KEVV 271654Z 31003KT 8SM FEW036 33/22 A3010 RMK AO2 SLP186 T03280222

More Conditions Fewer Conditions

10-Day Weather Forecast

Almanac

Astronomy

Aug. 27, 2014 Rise Set
Actual Time 6:15 AM CDT 7:26 PM CDT
Civil Twilight 5:47 AM CDT 7:54 PM CDT
Nautical Twilight 5:15 AM CDT 8:26 PM CDT
Astronomical Twilight 4:40 AM CDT 9:00 PM CDT
Moon 8:08 AM CDT 8:21 PM CDT
Length of Visible Light 14h 06m
Length of Day
13h 11m
Tomorrow will be 2m 20s shorter.
Waxing Crescent, 4% of the Moon is Illuminated
Today
Waxing Crescent
Sep 2
First Quarter
Sep 8
Full
Sep 15
Last Quarter
Sep 24
New

Today's Extremes

State Highs State Lows

Community

WunderPhotos

Upload Photos

1,747,733 photos uploaded!

Nearby

Air Quality

  Air Quality AQ Index Pollutant
Yesterday Moderate
PM2.5
Yesterday Moderate
OZONE
Current Moderate
PM2.5
Current Good
OZONE
Wednesday Unhealthy for Sensitive Groups
PM2.5
Wednesday Moderate
OZONE
Thursday Unhealthy for Sensitive Groups
PM2.5
Thursday Moderate
OZONE
Friday Moderate
PM2.5
Friday Moderate
OZONE

Snow Depth

Station Depth Elevation
No new snow has been reported.

Earthquake Activity

City Distance Mag. Time & Date
No recent earthquake activity has been reported nearby.
Minimum magnitude displayed is 2.5.

Coastal Water Temperatures

Place Temperature
No Stations Reporting

Nearby Weather Stations